Stockholm, Texas
Current Conditions -  °F | °C
As of 6:52 AM on Thursday 30 Oct 2014 (Local Time) from KHRL Reporting Station
Haze Haze  
Wind Chill: 66°   Ceiling: Unl
Heat Index: 66°   Visibility: 5mi
Dew Point: 65°   Wind: 0mph
Humidity: 96%   Direction: NA
Pressure: 30.04"   Gusts: NA
Location:  26.4075°N, 97.7282°W
Report Text: KHRL 301152Z 00000KT 5SM BR CLR 19/18 A3004 RMK AO2 SLP171 T01890183 10206 20183 53002
Loading
Personal Weather Stations






























Interactive Weather Map
Tropical Storm Tracking
New forecast layout! Learn more

10-Day Weather Forecast

Advertisements
Track Severe Weather on mobile